Time;durP1;ratioP1;P1;durP2;ratioP2;P2;SDS_P1;SDS_P2;PMS_P1;PMS_P2;Temp;Humidity;BMP_temperature;BMP_pressure;BME280_temperature;BME280_humidity;BME280_pressure;Samples;Min_cycle;Max_cycle;Signal;HPM_P1;HPM_P2
2021/07/10 00:00:43;;;;;;;18.05;7.70;;;;;;;28.01;48.01;100244.13;1831742;77;20995;-68
2021/07/10 00:03:09;;;;;;;20.27;8.05;;;;;;;27.99;48.10;100243.02;1830559;78;20985;-67
2021/07/10 00:05:35;;;;;;;15.25;8.75;;;;;;;27.98;48.22;100240.56;1830354;78;22118;-67
2021/07/10 00:08:02;;;;;;;21.37;8.38;;;;;;;27.95;48.26;100241.94;1831915;78;21044;-66
2021/07/10 00:10:29;;;;;;;17.12;8.60;;;;;;;27.93;48.33;100241.38;1831574;78;20997;-67
2021/07/10 00:12:56;;;;;;;19.37;8.18;;;;;;;27.91;48.42;100240.00;1808859;78;21488;-67
2021/07/10 00:15:24;;;;;;;18.92;9.70;;;;;;;27.89;48.52;100238.08;1831640;77;21477;-67
2021/07/10 00:17:52;;;;;;;21.62;8.78;;;;;;;27.88;48.62;100244.09;1828945;78;21221;-67
2021/07/10 00:20:19;;;;;;;17.77;8.63;;;;;;;27.87;48.66;100242.97;1831790;77;21109;-67
2021/07/10 00:22:46;;;;;;;18.05;9.90;;;;;;;27.84;48.74;100232.05;1831888;77;20998;-67
2021/07/10 00:25:16;;;;;;;18.52;9.23;;;;;;;27.83;48.84;100238.06;1831655;78;21097;-67
2021/07/10 00:27:44;;;;;;;22.20;8.85;;;;;;;27.81;48.88;100233.39;1831655;77;21068;-67
2021/07/10 00:30:12;;;;;;;14.90;8.83;;;;;;;27.79;49.01;100227.94;1828933;78;21117;-67
2021/07/10 00:32:38;;;;;;;19.23;8.40;;;;;;;27.77;49.08;100229.57;1831720;78;21612;-66
2021/07/10 00:35:07;;;;;;;19.12;8.13;;;;;;;27.76;49.14;100222.48;1831646;77;21087;-66
2021/07/10 00:37:34;;;;;;;16.87;8.25;;;;;;;27.75;49.17;100222.75;1831804;78;21065;-66
2021/07/10 00:40:01;;;;;;;16.67;8.43;;;;;;;27.73;49.29;100214.02;1831686;77;21091;-67
2021/07/10 00:42:27;;;;;;;19.57;9.00;;;;;;;27.72;49.37;100214.57;1831691;77;21929;-66
2021/07/10 00:44:54;;;;;;;15.38;8.83;;;;;;;27.70;49.39;100209.93;1831600;78;20989;-66
2021/07/10 00:47:21;;;;;;;19.85;9.85;;;;;;;27.69;49.50;100213.73;1824875;78;21103;-67
2021/07/10 00:49:48;;;;;;;17.60;9.05;;;;;;;27.68;49.56;100208.54;1823404;78;21026;-66
2021/07/10 00:52:14;;;;;;;14.68;8.58;;;;;;;27.67;49.68;100204.19;1825360;78;20989;-67
2021/07/10 00:54:41;;;;;;;18.20;9.53;;;;;;;27.63;49.79;100204.72;1821616;78;21059;-66
2021/07/10 00:57:07;;;;;;;17.42;9.08;;;;;;;27.61;49.93;100201.44;1799172;78;21561;-67
2021/07/10 01:01:57;;;;;;;16.15;9.55;;;;;;;27.62;50.21;100198.16;1870107;76;22544;-67
2021/07/10 01:04:23;;;;;;;14.83;9.38;;;;;;;27.51;50.40;100200.06;1855345;77;21072;-67
2021/07/10 01:06:51;;;;;;;16.40;9.43;;;;;;;27.50;50.52;100201.70;1860129;77;21089;-68
2021/07/10 01:09:18;;;;;;;18.73;9.63;;;;;;;27.50;50.64;100200.33;1830546;77;21005;-67
2021/07/10 01:11:45;;;;;;;24.18;14.23;;;;;;;27.48;50.74;100197.86;1820658;77;20992;-67
2021/07/10 01:14:13;;;;;;;19.80;12.75;;;;;;;27.47;50.80;100194.88;1820403;77;20905;-66
2021/07/10 01:16:40;;;;;;;21.73;12.07;;;;;;;27.46;50.92;100193.22;1828135;77;20917;-67
2021/07/10 01:19:08;;;;;;;18.02;11.00;;;;;;;27.44;50.99;100189.39;1846950;77;21438;-67
2021/07/10 01:21:36;;;;;;;13.38;9.45;;;;;;;27.43;51.03;100190.50;1832483;77;20914;-67
2021/07/10 01:24:04;;;;;;;16.70;9.83;;;;;;;27.42;51.00;100183.94;1861503;77;21032;-67
2021/07/10 01:26:31;;;;;;;15.10;9.25;;;;;;;27.41;51.00;100186.37;1860512;77;21068;-67
2021/07/10 01:28:57;;;;;;;17.85;9.63;;;;;;;27.40;51.05;100194.30;1862246;77;21005;-67
2021/07/10 01:31:25;;;;;;;18.20;9.70;;;;;;;27.38;51.16;100190.48;1859988;76;21106;-66
2021/07/10 01:33:51;;;;;;;12.90;9.28;;;;;;;27.36;51.27;100187.75;1852627;77;21005;-66
2021/07/10 01:36:18;;;;;;;12.23;8.40;;;;;;;27.35;51.42;100184.73;1839468;77;21068;-66
2021/07/10 01:38:46;;;;;;;16.77;9.63;;;;;;;27.32;51.49;100183.92;1855622;77;21504;-67
2021/07/10 01:41:13;;;;;;;17.60;9.28;;;;;;;27.31;51.61;100185.81;1819580;77;21001;-67
2021/07/10 01:43:39;;;;;;;22.85;9.45;;;;;;;27.30;51.74;100182.02;1848715;77;21200;-67
2021/07/10 01:46:05;;;;;;;14.35;8.95;;;;;;;27.28;51.83;100179.55;1859929;77;21738;-67
2021/07/10 01:48:33;;;;;;;15.78;9.53;;;;;;;27.25;51.92;100176.83;1859315;75;21016;-67
2021/07/10 01:50:59;;;;;;;19.00;10.13;;;;;;;27.24;51.93;100176.53;1786692;80;21521;-66
2021/07/10 01:53:26;;;;;;;14.43;9.78;;;;;;;27.24;51.97;100175.17;1794183;79;21036;-67
2021/07/10 01:55:52;;;;;;;12.33;9.13;;;;;;;27.22;52.00;100173.78;1791359;80;21115;-66
2021/07/10 01:58:19;;;;;;;12.18;9.43;;;;;;;27.21;52.08;100176.22;1784590;79;21044;-67
2021/07/10 02:00:47;;;;;;;15.25;8.53;;;;;;;27.20;52.04;100177.32;1774762;79;21042;-67
2021/07/10 02:03:15;;;;;;;12.10;9.35;;;;;;;27.19;52.10;100172.94;1776351;80;21041;-67
2021/07/10 02:05:43;;;;;;;14.03;10.48;;;;;;;27.18;52.13;100178.13;1802028;79;21053;-67
2021/07/10 02:08:09;;;;;;;12.13;9.48;;;;;;;27.17;52.23;100181.93;1802463;79;21687;-67
2021/07/10 02:10:37;;;;;;;16.30;9.48;;;;;;;27.15;52.30;100179.47;1779866;79;21041;-66
2021/07/10 02:13:09;;;;;;;12.98;9.15;;;;;;;27.14;52.38;100177.84;1801985;79;21013;-66
2021/07/10 02:15:36;;;;;;;15.38;8.70;;;;;;;27.13;52.43;100176.19;1775409;79;21570;-67
2021/07/10 02:18:03;;;;;;;11.25;8.65;;;;;;;27.12;52.49;100172.36;1784149;79;21061;-66
2021/07/10 02:20:31;;;;;;;9.75;8.43;;;;;;;27.11;52.57;100174.27;1777435;79;21271;-66
2021/07/10 02:22:58;;;;;;;10.82;8.30;;;;;;;27.10;52.58;100165.84;1781650;79;21517;-67
2021/07/10 02:25:28;;;;;;;12.55;9.58;;;;;;;27.09;52.73;100172.36;1780888;79;21049;-68
2021/07/10 02:27:54;;;;;;;12.70;9.30;;;;;;;27.07;52.75;100172.63;1801541;79;21489;-66
2021/07/10 02:30:26;;;;;;;11.78;8.35;;;;;;;27.06;52.89;100171.52;1801875;79;21075;-66
2021/07/10 02:32:55;;;;;;;13.70;8.40;;;;;;;27.04;52.90;100166.36;1772333;79;21155;-66
2021/07/10 02:35:22;;;;;;;13.22;8.65;;;;;;;27.04;52.90;100173.17;1769885;79;21093;-66
2021/07/10 02:37:48;;;;;;;12.35;9.35;;;;;;;27.02;52.97;100166.33;1792601;79;21059;-66
2021/07/10 02:40:18;;;;;;;11.65;8.48;;;;;;;27.00;53.02;100165.22;1769919;79;21583;-66
2021/07/10 02:42:45;;;;;;;11.48;10.05;;;;;;;26.99;53.07;100161.42;1795079;79;21010;-68
2021/07/10 02:45:15;;;;;;;13.10;8.88;;;;;;;26.97;53.10;100166.33;1801831;79;21525;-68
2021/07/10 02:47:41;;;;;;;12.07;8.85;;;;;;;26.96;53.20;100163.31;1801048;79;21052;-67
2021/07/10 02:50:12;;;;;;;12.07;9.60;;;;;;;26.94;53.25;100170.39;1780482;79;20997;-67
2021/07/10 02:52:39;;;;;;;14.85;9.95;;;;;;;26.92;53.32;100167.11;1780851;79;21493;-68
2021/07/10 02:55:07;;;;;;;12.63;9.25;;;;;;;26.92;53.32;100170.39;1769956;79;21052;-67
2021/07/10 02:57:34;;;;;;;13.60;9.43;;;;;;;26.91;53.38;100170.94;1769916;79;21153;-67
2021/07/10 03:00:01;;;;;;;12.75;9.18;;;;;;;26.93;53.43;100167.95;1792300;79;21072;-67
2021/07/10 03:02:28;;;;;;;14.38;10.05;;;;;;;26.91;53.49;100172.30;1774535;80;21509;-67
2021/07/10 03:04:54;;;;;;;17.70;9.85;;;;;;;26.92;53.50;100173.11;1811482;79;21037;-67
2021/07/10 03:07:20;;;;;;;14.45;9.33;;;;;;;26.92;53.56;100169.02;1778006;80;21565;-67
2021/07/10 03:09:47;;;;;;;13.18;9.18;;;;;;;26.90;53.65;100167.92;1778008;80;22305;-67
2021/07/10 03:12:15;;;;;;;11.15;9.63;;;;;;;26.90;53.71;100167.11;1777711;80;21012;-67
2021/07/10 03:14:41;;;;;;;17.95;10.93;;;;;;;26.88;53.81;100165.45;1777818;80;21026;-66
2021/07/10 03:17:09;;;;;;;12.80;10.13;;;;;;;26.89;53.94;100170.38;1791858;80;21100;-67
2021/07/10 03:19:36;;;;;;;12.90;9.83;;;;;;;26.88;53.99;100172.27;1792354;80;21477;-67
2021/07/10 03:22:05;;;;;;;14.05;10.45;;;;;;;26.88;54.05;100170.91;1791883;80;21977;-66
2021/07/10 03:24:32;;;;;;;16.25;10.82;;;;;;;26.88;54.09;100164.64;1792132;80;20998;-66
2021/07/10 03:26:59;;;;;;;20.55;11.22;;;;;;;26.87;54.15;100157.02;1791920;80;21055;-67
2021/07/10 03:29:26;;;;;;;19.48;11.60;;;;;;;26.87;54.21;100161.11;1791971;80;21092;-67
2021/07/10 03:31:52;;;;;;;17.27;11.12;;;;;;;26.86;54.28;100159.45;1792231;80;21493;-67
2021/07/10 03:34:19;;;;;;;18.15;11.90;;;;;;;26.87;54.36;100161.11;1791843;80;21913;-66
2021/07/10 03:36:45;;;;;;;18.60;11.83;;;;;;;26.87;54.45;100157.02;1792325;80;21534;-67
2021/07/10 03:39:12;;;;;;;20.25;11.50;;;;;;;26.87;54.46;100164.38;1791849;80;20982;-67
2021/07/10 03:41:38;;;;;;;16.85;10.80;;;;;;;26.88;54.53;100163.28;1792385;80;21020;-66
2021/07/10 03:44:06;;;;;;;14.85;11.12;;;;;;;26.86;54.43;100158.09;1791981;80;21029;-68
2021/07/10 03:46:33;;;;;;;14.78;10.58;;;;;;;26.90;54.16;100163.83;1791939;80;21135;-67
2021/07/10 03:49:00;;;;;;;15.35;11.28;;;;;;;26.91;54.04;100160.55;1791842;80;21005;-67
2021/07/10 03:51:27;;;;;;;19.05;10.75;;;;;;;26.93;54.06;100162.50;1792088;80;21002;-67
2021/07/10 03:53:54;;;;;;;14.73;11.05;;;;;;;26.94;54.13;100162.77;1811684;79;21505;-67
2021/07/10 03:56:22;;;;;;;21.60;11.18;;;;;;;26.95;54.15;100157.60;1791972;80;21066;-67
2021/07/10 03:58:48;;;;;;;22.37;11.50;;;;;;;26.97;54.17;100158.16;1792153;80;21045;-67
2021/07/10 04:01:15;;;;;;;14.98;10.98;;;;;;;27.00;54.20;100158.97;1780821;80;21260;-67
2021/07/10 04:03:42;;;;;;;16.25;12.00;;;;;;;27.00;54.37;100154.32;1743409;80;21075;-67
2021/07/10 04:06:08;;;;;;;18.60;11.48;;;;;;;27.01;54.47;100149.16;1760038;80;20997;-66
2021/07/10 04:08:36;;;;;;;14.68;10.60;;;;;;;27.03;54.62;100147.53;1751707;80;21005;-67
2021/07/10 04:11:03;;;;;;;16.90;10.90;;;;;;;27.04;54.62;100150.52;1758048;80;21140;-66
2021/07/10 04:13:31;;;;;;;18.95;11.15;;;;;;;27.06;54.55;100147.83;1767088;81;21036;-67
2021/07/10 04:16:00;;;;;;;19.00;10.53;;;;;;;27.08;54.57;100143.44;1760347;80;21012;-66
2021/07/10 04:18:27;;;;;;;22.10;12.28;;;;;;;27.10;54.58;100141.30;1765017;81;21010;-66
2021/07/10 04:20:54;;;;;;;28.70;12.88;;;;;;;27.12;54.70;100141.84;1762799;80;21080;-66
2021/07/10 04:23:23;;;;;;;18.62;11.48;;;;;;;27.15;54.82;100139.92;1742599;81;21130;-67
2021/07/10 04:25:49;;;;;;;19.37;10.30;;;;;;;27.18;54.51;100139.95;1750538;81;21026;-67
2021/07/10 04:28:16;;;;;;;19.20;11.48;;;;;;;27.20;54.56;100140.50;1773223;81;21492;-68
2021/07/10 04:30:43;;;;;;;17.30;10.63;;;;;;;27.23;54.63;100130.40;1773165;81;21017;-66
2021/07/10 04:33:10;;;;;;;18.25;10.75;;;;;;;27.26;54.70;100129.91;1758173;80;21531;-67
2021/07/10 04:35:36;;;;;;;12.50;9.40;;;;;;;27.30;54.64;100117.92;1767164;81;21115;-67
2021/07/10 04:38:03;;;;;;;14.03;8.60;;;;;;;27.36;54.26;100122.28;1773585;80;21001;-68
2021/07/10 04:40:29;;;;;;;11.78;8.30;;;;;;;27.41;53.62;100115.45;1773080;80;22939;-67
2021/07/10 04:42:56;;;;;;;8.83;7.17;;;;;;;27.46;53.02;100120.92;1742474;80;21024;-67
2021/07/10 04:45:22;;;;;;;7.87;7.08;;;;;;;27.50;52.57;100119.29;1742691;81;21486;-67
2021/07/10 04:47:49;;;;;;;11.70;6.95;;;;;;;27.58;51.94;100120.66;1770850;81;21092;-67
2021/07/10 04:50:16;;;;;;;7.42;6.42;;;;;;;27.63;51.63;100113.85;1773079;80;21041;-67
2021/07/10 04:52:43;;;;;;;8.60;6.80;;;;;;;27.67;51.11;100105.94;1773263;81;21081;-67
2021/07/10 04:55:12;;;;;;;9.53;7.20;;;;;;;27.72;50.96;100115.48;1759485;81;21128;-67
2021/07/10 04:57:38;;;;;;;7.60;6.80;;;;;;;27.73;50.72;100112.48;1765958;81;21056;-67
2021/07/10 05:00:07;;;;;;;11.28;6.55;;;;;;;27.76;50.43;100107.85;1773123;81;21217;-67
2021/07/10 05:02:33;;;;;;;10.28;6.28;;;;;;;27.80;50.20;100117.68;1794240;79;21033;-68
2021/07/10 05:05:00;;;;;;;8.00;6.28;;;;;;;27.83;49.83;100108.92;1800859;79;21021;-66
2021/07/10 05:07:26;;;;;;;10.00;6.00;;;;;;;27.85;49.46;100106.22;1782731;79;21492;-67
2021/07/10 05:09:53;;;;;;;10.55;6.20;;;;;;;27.89;49.07;100102.39;1801740;79;21993;-67
2021/07/10 05:12:22;;;;;;;8.35;6.20;;;;;;;27.92;48.81;100105.14;1779952;79;21870;-67
2021/07/10 05:14:51;;;;;;;6.55;5.80;;;;;;;27.94;48.66;100107.05;1781047;79;21186;-68
2021/07/10 05:17:18;;;;;;;8.38;6.45;;;;;;;27.97;48.42;100106.48;1792356;79;21032;-65
2021/07/10 05:19:45;;;;;;;7.58;5.72;;;;;;;27.99;48.19;100107.86;1788062;79;21028;-66
2021/07/10 05:22:12;;;;;;;8.10;6.67;;;;;;;28.02;48.03;100105.93;1796671;79;21080;-67
2021/07/10 05:24:41;;;;;;;7.67;6.30;;;;;;;28.06;47.96;100109.48;1769903;79;21485;-67
2021/07/10 05:27:07;;;;;;;6.72;6.12;;;;;;;28.08;47.95;100107.30;1772992;79;21056;-67
2021/07/10 05:29:34;;;;;;;9.25;5.97;;;;;;;28.10;47.82;100104.55;1801754;79;21036;-69
2021/07/10 05:32:02;;;;;;;6.85;5.95;;;;;;;28.13;47.68;100107.30;1801700;79;21065;-68
2021/07/10 05:34:29;;;;;;;12.07;6.30;;;;;;;28.16;47.38;100113.03;1802073;79;22106;-68
2021/07/10 05:36:55;;;;;;;6.50;5.90;;;;;;;28.19;47.32;100116.56;1802063;79;21088;-69
2021/07/10 05:39:22;;;;;;;7.22;5.90;;;;;;;28.22;47.48;100116.55;1771660;79;21017;-67
2021/07/10 05:41:48;;;;;;;7.47;6.37;;;;;;;28.26;47.47;100114.08;1787757;79;20990;-68
2021/07/10 05:44:15;;;;;;;11.80;6.78;;;;;;;28.28;47.44;100111.89;1796726;79;21079;-67
2021/07/10 05:46:41;;;;;;;7.12;6.17;;;;;;;28.31;47.29;100116.81;1770156;79;21120;-68
2021/07/10 05:49:08;;;;;;;6.62;6.03;;;;;;;28.35;47.01;100113.80;1792775;79;21504;-67
2021/07/10 05:51:34;;;;;;;7.67;5.60;;;;;;;28.38;46.87;100120.08;1781712;79;20993;-68
2021/07/10 05:54:01;;;;;;;7.97;6.25;;;;;;;28.40;46.70;100122.80;1789543;80;21049;-67
2021/07/10 05:56:27;;;;;;;7.00;6.30;;;;;;;28.44;46.97;100121.70;1735994;79;21064;-68
2021/07/10 05:58:54;;;;;;;8.45;6.28;;;;;;;28.48;46.98;100124.70;1794976;78;21076;-70
2021/07/10 06:01:21;;;;;;;7.97;6.70;;;;;;;28.50;47.15;100116.48;1760046;78;21128;-69
2021/07/10 06:03:48;;;;;;;8.63;6.45;;;;;;;28.54;47.29;100120.88;1783290;79;21057;-69
2021/07/10 06:06:14;;;;;;;7.87;6.47;;;;;;;28.56;47.08;100121.41;1770044;79;21049;-68
2021/07/10 06:08:43;;;;;;;13.10;7.10;;;;;;;28.59;47.23;100121.68;1799542;79;21029;-69
2021/07/10 06:11:09;;;;;;;11.97;6.72;;;;;;;28.62;47.34;100117.56;1801778;79;21028;-67
2021/07/10 06:13:37;;;;;;;9.33;6.70;;;;;;;28.66;47.25;100124.09;1800761;79;21135;-67
2021/07/10 06:16:04;;;;;;;9.50;6.55;;;;;;;28.70;47.18;100118.90;1771322;79;21083;-67
2021/07/10 06:18:31;;;;;;;9.50;7.00;;;;;;;28.73;47.40;100121.08;1771992;79;21045;-68
2021/07/10 06:20:58;;;;;;;11.90;6.53;;;;;;;28.75;47.14;100118.33;1790179;79;21045;-67
2021/07/10 06:23:24;;;;;;;10.20;6.65;;;;;;;28.79;46.91;100118.03;1791525;79;21065;-67
2021/07/10 06:25:51;;;;;;;8.53;6.30;;;;;;;28.81;46.92;100114.47;1801815;79;21037;-68
2021/07/10 06:28:17;;;;;;;9.25;6.17;;;;;;;28.84;47.17;100114.48;1783342;79;21596;-67
2021/07/10 06:30:43;;;;;;;9.38;7.15;;;;;;;28.88;47.20;100120.17;1775509;79;21062;-68
2021/07/10 06:33:10;;;;;;;9.58;5.97;;;;;;;28.91;46.88;100120.99;1797717;79;21045;-67
2021/07/10 06:35:36;;;;;;;11.53;6.22;;;;;;;28.93;46.72;100115.50;1779722;79;21007;-67
2021/07/10 06:38:03;;;;;;;10.72;6.75;;;;;;;28.95;46.20;100117.96;1789259;79;21854;-67
2021/07/10 06:40:29;;;;;;;10.13;6.72;;;;;;;28.99;45.93;100119.03;1769903;79;21059;-68
2021/07/10 06:42:56;;;;;;;9.15;6.62;;;;;;;29.00;46.10;100118.75;1779789;79;21049;-67
2021/07/10 06:45:22;;;;;;;9.43;6.72;;;;;;;29.05;46.27;100126.66;1782621;79;21553;-69
2021/07/10 06:47:49;;;;;;;8.30;6.55;;;;;;;29.06;46.22;100125.02;1800137;79;21580;-68
2021/07/10 06:50:19;;;;;;;7.87;6.22;;;;;;;29.10;46.01;100121.17;1786370;79;21124;-68
2021/07/10 06:52:46;;;;;;;8.68;6.35;;;;;;;29.11;45.83;100119.53;1797289;79;21100;-66
2021/07/10 06:55:14;;;;;;;8.05;6.00;;;;;;;29.13;46.03;100115.98;1801831;79;21523;-68
2021/07/10 06:57:40;;;;;;;8.38;5.67;;;;;;;29.16;46.14;100123.61;1791963;79;21041;-68
2021/07/10 07:00:10;;;;;;;6.03;5.42;;;;;;;29.18;44.95;100121.41;1776503;79;21044;-68
2021/07/10 07:02:37;;;;;;;8.53;5.30;;;;;;;29.20;44.77;100117.84;1785657;79;21139;-67
2021/07/10 07:05:05;;;;;;;7.90;5.92;;;;;;;29.23;45.18;100113.73;1813062;78;21061;-67
2021/07/10 07:07:31;;;;;;;6.58;5.87;;;;;;;29.25;45.15;100117.01;1801843;79;21025;-67
2021/07/10 07:09:58;;;;;;;7.15;5.20;;;;;;;29.28;45.16;100120.53;1778047;79;21049;-67
2021/07/10 07:12:26;;;;;;;6.12;5.53;;;;;;;29.29;45.00;100117.27;1769974;79;20997;-68
2021/07/10 07:14:54;;;;;;;7.75;5.78;;;;;;;29.32;44.83;100110.67;1791423;79;21029;-67
2021/07/10 07:17:20;;;;;;;9.70;6.37;;;;;;;29.34;45.07;100122.16;1778196;80;21537;-67
2021/07/10 07:19:47;;;;;;;7.83;5.25;;;;;;;29.36;44.43;100116.38;1783255;79;21032;-67
2021/07/10 07:22:13;;;;;;;6.47;5.78;;;;;;;29.39;44.34;100113.08;1769924;79;21021;-68
2021/07/10 07:24:40;;;;;;;19.85;6.20;;;;;;;29.40;44.17;100109.25;1770060;79;21525;-67
2021/07/10 07:27:06;;;;;;;8.20;5.33;;;;;;;29.43;43.87;100111.97;1770194;79;21108;-67
2021/07/10 07:29:36;;;;;;;8.10;5.65;;;;;;;29.44;43.47;100106.73;1782828;79;21528;-68
2021/07/10 07:32:04;;;;;;;5.85;5.33;;;;;;;29.46;43.48;100108.11;1778602;79;21583;-67
2021/07/10 07:34:31;;;;;;;6.65;5.28;;;;;;;29.48;43.59;100111.37;1781828;79;21009;-67
2021/07/10 07:36:57;;;;;;;8.15;5.97;;;;;;;29.49;43.43;100107.52;1802861;79;21079;-67
2021/07/10 07:39:24;;;;;;;9.13;5.45;;;;;;;29.51;43.78;100112.72;1801846;79;21547;-68
2021/07/10 07:41:51;;;;;;;6.25;5.30;;;;;;;29.52;43.42;100110.26;1803907;79;21021;-68
2021/07/10 07:44:17;;;;;;;6.40;5.45;;;;;;;29.54;43.33;100111.59;1792140;79;21522;-67
2021/07/10 07:46:44;;;;;;;5.67;5.17;;;;;;;29.56;43.80;100112.69;1780698;80;21005;-67
2021/07/10 07:49:10;;;;;;;8.03;6.03;;;;;;;29.58;43.83;100112.66;1772556;79;21048;-67
2021/07/10 07:51:38;;;;;;;6.03;5.53;;;;;;;29.60;43.57;100117.85;1776814;79;20994;-67
2021/07/10 07:54:05;;;;;;;6.08;5.47;;;;;;;29.62;43.52;100117.57;1774102;79;21502;-68
2021/07/10 07:56:31;;;;;;;8.08;6.20;;;;;;;29.59;43.64;100110.20;1770703;79;21072;-68
2021/07/10 07:58:59;;;;;;;7.17;5.53;;;;;;;29.65;43.31;100108.77;1777710;79;21524;-67
2021/07/10 08:01:25;;;;;;;7.05;6.05;;;;;;;29.69;43.16;100107.09;1773819;79;21041;-67
2021/07/10 08:03:51;;;;;;;6.30;5.67;;;;;;;29.71;43.41;100111.73;1757329;80;21796;-66
2021/07/10 08:06:18;;;;;;;6.30;5.70;;;;;;;29.73;43.70;100110.39;1738966;81;21650;-67
2021/07/10 08:08:46;;;;;;;8.20;5.53;;;;;;;29.76;43.85;100111.72;1764559;80;21053;-67
2021/07/10 08:11:14;;;;;;;8.25;6.30;;;;;;;29.78;44.02;100108.14;1775417;80;21003;-67
2021/07/10 08:13:44;;;;;;;8.23;5.75;;;;;;;29.80;43.92;100114.15;1772659;80;21049;-66
2021/07/10 08:16:12;;;;;;;5.65;5.05;;;;;;;29.81;43.95;100114.42;1769506;81;21484;-67
2021/07/10 08:18:40;;;;;;;9.68;5.97;;;;;;;29.83;44.03;100113.59;1782904;80;21599;-66
2021/07/10 08:21:07;;;;;;;6.95;5.60;;;;;;;29.85;44.13;100105.89;1751993;81;21278;-68
2021/07/10 08:23:34;;;;;;;6.97;5.80;;;;;;;29.87;44.03;100114.64;1770514;80;21069;-68
2021/07/10 08:26:01;;;;;;;6.60;6.00;;;;;;;29.89;44.12;100112.42;1754403;81;21096;-68
2021/07/10 08:28:27;;;;;;;9.40;6.05;;;;;;;29.92;43.96;100120.61;1760930;81;21035;-67
2021/07/10 08:30:54;;;;;;;6.80;6.10;;;;;;;29.93;43.77;100108.56;1753022;81;21034;-67
2021/07/10 08:33:21;;;;;;;8.03;6.00;;;;;;;29.95;43.57;100111.27;1775448;80;21027;-68
2021/07/10 08:35:47;;;;;;;5.83;5.33;;;;;;;29.99;43.75;100106.03;1772774;80;21281;-67
2021/07/10 08:38:13;;;;;;;7.87;6.15;;;;;;;29.97;43.64;100102.77;1769887;81;21036;-66
2021/07/10 08:40:39;;;;;;;6.08;5.47;;;;;;;30.03;43.42;100108.45;1748105;81;21205;-67
2021/07/10 08:43:06;;;;;;;6.20;5.60;;;;;;;30.05;43.58;100108.98;1769863;81;21037;-68
2021/07/10 08:45:35;;;;;;;6.40;5.80;;;;;;;30.08;43.54;100102.13;1748374;81;21065;-68
2021/07/10 08:48:03;;;;;;;8.53;5.97;;;;;;;30.08;43.80;100107.05;1757107;81;21278;-67
2021/07/10 08:50:30;;;;;;;6.33;5.72;;;;;;;30.09;43.92;100108.66;1769541;81;21086;-67
2021/07/10 08:52:56;;;;;;;7.37;5.45;;;;;;;30.10;43.83;100100.72;1774995;80;21033;-67
2021/07/10 08:55:23;;;;;;;7.45;5.80;;;;;;;30.12;43.41;100095.77;1762605;81;21069;-68
2021/07/10 08:57:51;;;;;;;7.42;6.72;;;;;;;30.14;43.36;100090.01;1773000;80;21040;-67
2021/07/10 09:00:37;;;;;;;6.65;6.03;;;;;;;30.15;43.42;100090.25;1740125;81;21138;-67
2021/07/10 09:03:06;;;;;;;6.53;5.95;;;;;;;30.18;43.37;100093.23;1781609;79;21060;-67
2021/07/10 09:05:34;;;;;;;6.80;6.20;;;;;;;30.21;43.40;100085.54;1792178;80;20970;-67
2021/07/10 09:08:23;;;;;;;6.33;5.70;;;;;;;30.21;43.17;100082.27;1797471;79;21018;-68
2021/07/10 09:11:10;;;;;;;7.05;5.72;;;;;;;30.25;43.52;100087.42;1824704;78;21068;-67
2021/07/10 09:13:43;;;;;;;6.05;5.55;;;;;;;30.28;43.88;100090.94;1773046;79;21096;-68
2021/07/10 09:16:16;;;;;;;7.78;5.53;;;;;;;30.30;44.18;100092.83;1806891;78;21052;-68
2021/07/10 09:19:02;;;;;;;6.70;6.03;;;;;;;30.32;44.26;100091.20;1825107;78;21056;-67
2021/07/10 09:21:50;;;;;;;6.33;5.72;;;;;;;30.35;44.21;100092.00;1825220;78;21048;-67
2021/07/10 09:24:33;;;;;;;6.87;6.20;;;;;;;30.35;44.23;100088.70;1825321;78;21045;-67
2021/07/10 09:27:05;;;;;;;6.53;5.87;;;;;;;30.37;44.21;100089.23;1825460;78;21045;-69
2021/07/10 09:29:40;;;;;;;6.00;5.50;;;;;;;30.38;44.32;100091.41;1825223;78;21017;-67
2021/07/10 09:32:09;;;;;;;6.67;6.08;;;;;;;30.40;44.34;100091.12;1825434;78;21112;-67
2021/07/10 09:34:45;;;;;;;6.45;5.53;;;;;;;30.42;44.41;100083.41;1825707;78;21639;-68
2021/07/10 09:37:14;;;;;;;6.62;6.03;;;;;;;30.44;44.31;100083.38;1825427;78;21021;-67
2021/07/10 09:39:58;;;;;;;5.97;5.47;;;;;;;30.47;44.33;100086.11;1825830;78;21029;-67
2021/07/10 09:42:34;;;;;;;6.83;6.03;;;;;;;30.50;44.36;100085.50;1825548;78;21087;-67
2021/07/10 09:45:00;;;;;;;5.60;5.17;;;;;;;30.52;44.38;100075.90;1825551;78;21088;-68
2021/07/10 09:47:35;;;;;;;7.35;5.55;;;;;;;30.55;44.35;100067.63;1825291;78;20978;-68
2021/07/10 09:50:06;;;;;;;6.58;5.83;;;;;;;30.59;44.42;100068.67;1796181;78;21077;-68
2021/07/10 09:52:36;;;;;;;6.50;5.87;;;;;;;30.64;44.41;100074.66;1785694;80;21033;-68
2021/07/10 09:55:11;;;;;;;7.35;6.53;;;;;;;30.68;44.39;100070.22;1805266;79;21040;-68
2021/07/10 09:57:40;;;;;;;6.67;6.08;;;;;;;30.72;44.44;100068.52;1805621;79;21468;-67
2021/07/10 10:00:18;;;;;;;6.33;5.83;;;;;;;30.75;44.47;100066.01;1799467;79;20972;-67
2021/07/10 10:02:50;;;;;;;6.40;5.83;;;;;;;30.79;44.47;100067.61;1787881;79;21081;-68
2021/07/10 10:05:22;;;;;;;;;;;;;;;30.84;44.15;100069.45;1769527;80;21041;-67
2021/07/10 10:07:52;;;;;;;5.95;5.45;;;;;;;30.87;44.26;100066.13;1788122;80;20145;-68
2021/07/10 10:10:33;;;;;;;6.50;5.90;;;;;;;30.83;44.42;100063.70;1767102;80;21997;-68
2021/07/10 10:13:13;;;;;;;6.62;6.10;;;;;;;30.88;44.47;100058.95;1770147;79;21090;-67
2021/07/10 10:15:47;;;;;;;5.87;5.37;;;;;;;30.93;44.52;100059.48;1758232;80;21609;-67
2021/07/10 10:18:21;;;;;;;6.10;5.50;;;;;;;30.98;44.56;100061.33;1758114;80;21106;-67
2021/07/10 10:20:48;;;;;;;6.28;5.45;;;;;;;31.02;44.62;100056.88;1758462;80;21673;-66
2021/07/10 10:23:16;;;;;;;6.10;5.60;;;;;;;31.07;44.55;100048.58;1758326;80;23236;-69
2021/07/10 10:25:43;;;;;;;6.08;5.58;;;;;;;31.11;44.50;100055.09;1785448;80;21058;-68
2021/07/10 10:28:19;;;;;;;6.33;5.45;;;;;;;31.16;44.34;100044.86;1787788;80;21010;-68
2021/07/10 10:30:52;;;;;;;6.00;5.50;;;;;;;31.22;44.25;100035.19;1766965;80;21054;-67
2021/07/10 10:33:19;;;;;;;6.00;5.60;;;;;;;31.28;44.18;100036.17;1763249;80;21028;-67
2021/07/10 10:35:46;;;;;;;6.83;6.33;;;;;;;31.34;44.20;100044.56;1763691;81;21214;-67
2021/07/10 10:38:14;;;;;;;6.85;6.35;;;;;;;31.41;44.22;100048.31;1779467;80;21026;-67
2021/07/10 10:40:41;;;;;;;7.37;6.12;;;;;;;31.46;43.86;100044.13;1782417;80;21384;-69
2021/07/10 10:43:08;;;;;;;6.45;5.85;;;;;;;31.52;43.12;100037.45;1755124;80;21042;-68
2021/07/10 10:45:36;;;;;;;6.00;5.50;;;;;;;31.59;43.03;100034.88;1775958;80;21061;-67
2021/07/10 10:48:04;;;;;;;6.87;6.37;;;;;;;31.65;43.04;100024.86;1784787;80;21042;-68
2021/07/10 10:50:34;;;;;;;5.90;5.40;;;;;;;31.71;42.99;100025.02;1766160;80;21650;-68
2021/07/10 10:53:01;;;;;;;6.37;5.87;;;;;;;31.78;42.73;100026.01;1755584;80;21079;-67
2021/07/10 10:55:38;;;;;;;6.90;5.55;;;;;;;31.83;42.71;100024.52;1755266;80;21094;-68
2021/07/10 10:58:26;;;;;;;6.47;5.87;;;;;;;31.90;42.63;100018.64;1776088;80;20982;-68
2021/07/10 11:01:01;;;;;;;6.50;6.00;;;;;;;31.97;42.32;100027.30;1769711;80;21139;-67
2021/07/10 11:03:38;;;;;;;6.92;6.22;;;;;;;32.02;42.45;100025.03;1781758;79;21057;-68
2021/07/10 11:06:05;;;;;;;6.15;5.65;;;;;;;32.06;42.54;100022.73;1780424;79;21559;-68
2021/07/10 11:08:38;;;;;;;6.33;5.80;;;;;;;32.12;42.62;100019.33;1802114;79;21718;-67
2021/07/10 11:11:10;;;;;;;5.47;5.03;;;;;;;32.17;42.66;100016.48;1802077;79;21012;-67
2021/07/10 11:13:41;;;;;;;6.12;5.58;;;;;;;32.21;42.70;100012.00;1802241;79;21135;-68
2021/07/10 11:16:17;;;;;;;6.60;6.00;;;;;;;32.27;42.73;100012.14;1786463;79;21036;-68
2021/07/10 11:18:56;;;;;;;6.30;5.80;;;;;;;32.32;42.75;100013.42;1775283;79;21520;-67
2021/07/10 11:21:48;;;;;;;5.85;5.35;;;;;;;32.37;42.71;100008.37;1785202;79;21576;-68
2021/07/10 11:24:23;;;;;;;6.80;6.30;;;;;;;32.43;42.68;100003.58;1791589;79;21021;-67
2021/07/10 11:27:00;;;;;;;5.35;4.85;;;;;;;32.49;42.63;100007.84;1802110;79;21010;-68
2021/07/10 11:29:36;;;;;;;5.90;5.47;;;;;;;32.53;42.63;100002.00;1802115;79;21042;-68